An Xiu Shan — BRQV — position and weather

sailwx.info

Track history (hours):
 
Tides and Currents Weather Stations Pressure Air Temp Water Temp Dewpoint Dewpoint Depression Visibility Wind Speed Wind Dir Waves Ship Positions

An Xiu Shan

Last reported at 2015-Jun-30 18:31 UTC. Time now 2015-Jul-03 12:22 UTC.
Position N 23°41' E 117°57'.

Length 199 m; draft 12.7 m.

Type: Cargo ship. MMSI: 413195000.

Date/timePositionNaut miles runAvg speedWind from/ knotsBaromVisibWave heightAir tempDewpointWater temp
2015-Jun-30 18:31N 23°41' E 117°57'1110.4
2015-Jun-30 17:25N 23°49' E 118°06'910.4
2015-Jun-30 16:33N 23°55' E 118°12'1010.0
2015-Jun-30 15:32N 24°03' E 118°20'42 8.5
2015-Jun-30 10:33N 24°32' E 118°54'7 7.2
2015-Jun-30 09:33N 24°36' E 119°00'7 7.3
2015-Jun-30 08:32N 24°41' E 119°07'7 7.5
2015-Jun-30 07:33N 24°45' E 119°14'362 9.2
2015-Jun-28 16:06N 29°50' E 122°53'46810.0
2015-Jun-26 17:04N 37°39' E 122°51'510.0
2015-Jun-26 16:33N 37°41' E 122°45'1010.0
2015-Jun-26 15:33N 37°46' E 122°34'1010.5
2015-Jun-26 14:33N 37°51' E 122°22'1110.8
2015-Jun-26 13:33N 37°56' E 122°10'1110.7
2015-Jun-26 12:33N 38°02' E 121°59'1110.6
2015-Jun-26 11:33N 38°07' E 121°47'1110.4
2015-Jun-26 10:31N 38°12' E 121°35'1010.3
2015-Jun-26 09:33N 38°18' E 121°24'1310.7
2015-Jun-26 08:20N 38°25' E 121°11'10010.0
2015-Jun-25 22:20N 39°40' E 119°46'8 9.9
2015-Jun-25 21:33N 39°47' E 119°41'8 8.0
2015-Jun-25 20:33N 39°55' E 119°39'1 0.6
2015-Jun-25 19:33N 39°56' E 119°39'0 0.0
2015-Jun-25 18:33N 39°56' E 119°39'0 0.0
2015-Jun-25 17:33N 39°56' E 119°39'0 0.0
2015-Jun-25 16:33N 39°56' E 119°39'0 0.0
2015-Jun-25 15:27N 39°56' E 119°39'0 0.0
2015-Jun-25 14:21N 39°56' E 119°39'0 0.0
2015-Jun-25 13:33N 39°56' E 119°39'0 0.0
2015-Jun-25 12:27N 39°56' E 119°39'0 0.0
2015-Jun-25 11:33N 39°56' E 119°39'0 0.0
2015-Jun-25 10:33N 39°56' E 119°39'0 0.0
2015-Jun-25 09:33N 39°56' E 119°39'0 0.0
2015-Jun-25 08:33N 39°56' E 119°39'0 0.0
2015-Jun-25 07:27N 39°56' E 119°39'0 0.0
2015-Jun-25 06:33N 39°56' E 119°39'0 0.0
2015-Jun-25 05:33N 39°56' E 119°39'0 0.0
2015-Jun-25 04:33N 39°56' E 119°39'0 0.0
2015-Jun-25 03:33N 39°56' E 119°39'0 0.0
2015-Jun-25 02:33N 39°56' E 119°39'0 0.0
2015-Jun-25 01:33N 39°56' E 119°39'0 0.0
2015-Jun-25 00:33N 39°56' E 119°39'0 0.0
2015-Jun-24 23:33N 39°56' E 119°39'0 0.0
2015-Jun-24 22:33N 39°56' E 119°39'0 0.0
2015-Jun-24 21:33N 39°56' E 119°39'0 0.0
2015-Jun-24 20:33N 39°56' E 119°39'0 0.0
2015-Jun-24 19:21N 39°56' E 119°39'0 0.0
2015-Jun-24 18:33N 39°56' E 119°39'1 1.3
2015-Jun-24 17:34N 39°54' E 119°39'9 9.1
2015-Jun-24 16:34N 39°47' E 119°45'5 4.9
2015-Jun-24 15:32N 39°45' E 119°51'0 0.0
2015-Jun-24 14:32N 39°45' E 119°52'0 0.0
2015-Jun-24 13:32N 39°45' E 119°52'0 0.0
2015-Jun-24 12:20N 39°45' E 119°52'1 1.2
2015-Jun-24 11:33N 39°44' E 119°52'10 9.8
2015-Jun-24 10:33N 39°36' E 119°60'1212.1
2015-Jun-24 09:33N 39°27' E 120°09'1212.4
2015-Jun-24 08:33N 39°17' E 120°19'1212.5
2015-Jun-24 07:33N 39°07' E 120°29'1312.1
2015-Jun-24 06:31N 38°56' E 120°38'4611.5
2015-Jun-24 02:31N 38°24' E 121°20'1112.0
2015-Jun-24 01:33N 38°18' E 121°32'1212.0
2015-Jun-24 00:32N 38°11' E 121°45'1212.1
2015-Jun-23 23:33N 38°05' E 121°58'1211.9
2015-Jun-23 22:34N 37°58' E 122°10'1211.6
2015-Jun-23 21:32N 37°51' E 122°22'1111.0
2015-Jun-23 20:33N 37°45' E 122°34'1110.3
2015-Jun-23 19:30N 37°38' E 122°44'40011.8
2015-Jun-22 09:29N 30°58' E 122°35'1213.1
2015-Jun-22 08:33N 31°01' E 122°21'1313.0
2015-Jun-22 07:33N 31°04' E 122°06'1111.4
2015-Jun-22 06:33N 31°08' E 121°54'1110.9
2015-Jun-22 05:33N 31°16' E 121°45'1111.4
2015-Jun-22 04:33N 31°23' E 121°35'1110.7
2015-Jun-22 03:33N 31°30' E 121°25'10 9.7
2015-Jun-22 02:33N 31°37' E 121°17'0 0.4
2015-Jun-22 01:24N 31°37' E 121°18'0 0.0
2015-Jun-22 00:12N 31°37' E 121°18'0 0.0
2015-Jun-21 23:33N 31°37' E 121°18'0 0.1
2015-Jun-21 22:33N 31°37' E 121°18'0 0.2
2015-Jun-21 21:33N 31°37' E 121°18'0 0.1
2015-Jun-21 20:33N 31°37' E 121°17'0 0.0
2015-Jun-21 19:33N 31°37' E 121°17'0 0.0
2015-Jun-21 18:33N 31°37' E 121°17'0 0.2
2015-Jun-21 17:33N 31°37' E 121°18'0 0.2
2015-Jun-21 16:33N 31°37' E 121°18'0 0.1
2015-Jun-21 15:33N 31°37' E 121°18'0 0.1
2015-Jun-21 14:33N 31°37' E 121°18'0 0.0
2015-Jun-21 13:33N 31°37' E 121°18'0 0.0
2015-Jun-21 12:30N 31°37' E 121°18'0 0.0
2015-Jun-21 11:33N 31°37' E 121°18'0 0.1
2015-Jun-21 10:33N 31°37' E 121°18'0 0.2
2015-Jun-21 09:33N 31°37' E 121°17'0 0.1
2015-Jun-21 08:33N 31°37' E 121°17'0 0.1
2015-Jun-21 07:33N 31°37' E 121°17'0 0.0
2015-Jun-21 06:33N 31°37' E 121°17'0 0.1
2015-Jun-21 05:30N 31°37' E 121°18'0 0.2
2015-Jun-21 04:33N 31°37' E 121°18'0 0.1
2015-Jun-21 03:33N 31°37' E 121°18'0 0.1
2015-Jun-21 02:33N 31°37' E 121°18'0 0.0
2015-Jun-21 01:33N 31°37' E 121°18'0 0.0
2015-Jun-21 00:33N 31°37' E 121°18'0 0.1
2015-Jun-20 23:33N 31°37' E 121°18'0 0.0
2015-Jun-20 22:33N 31°37' E 121°18'0 0.1
2015-Jun-20 21:33N 31°37' E 121°18'0 0.2
2015-Jun-20 20:33N 31°37' E 121°18'0 0.0
2015-Jun-20 19:33N 31°37' E 121°18'0 0.1
2015-Jun-20 18:33N 31°37' E 121°17'  
Track history (hours):
 
Tides and Currents Weather Stations Pressure Air Temp Water Temp Dewpoint Dewpoint Depression Visibility Wind Speed Wind Dir Waves Ship Positions

An Xiu Shan

Last reported at 2015-Jun-30 18:31 UTC. Time now 2015-Jul-03 12:22 UTC.
Position N 23°41' E 117°57'.

Length 199 m; draft 12.7 m.

Type: Cargo ship. MMSI: 413195000.

Date/timePositionNaut miles runAvg speedWind from/ knotsBaromVisibWave heightAir tempDewpointWater temp
2015-Jun-30 18:31N 23°41' E 117°57'1110.4
2015-Jun-30 17:25N 23°49' E 118°06'910.4
2015-Jun-30 16:33N 23°55' E 118°12'1010.0
2015-Jun-30 15:32N 24°03' E 118°20'42 8.5
2015-Jun-30 10:33N 24°32' E 118°54'7 7.2
2015-Jun-30 09:33N 24°36' E 119°00'7 7.3
2015-Jun-30 08:32N 24°41' E 119°07'7 7.5
2015-Jun-30 07:33N 24°45' E 119°14'362 9.2
2015-Jun-28 16:06N 29°50' E 122°53'46810.0
2015-Jun-26 17:04N 37°39' E 122°51'510.0
2015-Jun-26 16:33N 37°41' E 122°45'1010.0
2015-Jun-26 15:33N 37°46' E 122°34'1010.5
2015-Jun-26 14:33N 37°51' E 122°22'1110.8
2015-Jun-26 13:33N 37°56' E 122°10'1110.7
2015-Jun-26 12:33N 38°02' E 121°59'1110.6
2015-Jun-26 11:33N 38°07' E 121°47'1110.4
2015-Jun-26 10:31N 38°12' E 121°35'1010.3
2015-Jun-26 09:33N 38°18' E 121°24'1310.7
2015-Jun-26 08:20N 38°25' E 121°11'10010.0
2015-Jun-25 22:20N 39°40' E 119°46'8 9.9
2015-Jun-25 21:33N 39°47' E 119°41'8 8.0
2015-Jun-25 20:33N 39°55' E 119°39'1 0.6
2015-Jun-25 19:33N 39°56' E 119°39'0 0.0
2015-Jun-25 18:33N 39°56' E 119°39'0 0.0
2015-Jun-25 17:33N 39°56' E 119°39'0 0.0
2015-Jun-25 16:33N 39°56' E 119°39'0 0.0
2015-Jun-25 15:27N 39°56' E 119°39'0 0.0
2015-Jun-25 14:21N 39°56' E 119°39'0 0.0
2015-Jun-25 13:33N 39°56' E 119°39'0 0.0
2015-Jun-25 12:27N 39°56' E 119°39'0 0.0
2015-Jun-25 11:33N 39°56' E 119°39'0 0.0
2015-Jun-25 10:33N 39°56' E 119°39'0 0.0
2015-Jun-25 09:33N 39°56' E 119°39'0 0.0
2015-Jun-25 08:33N 39°56' E 119°39'0 0.0
2015-Jun-25 07:27N 39°56' E 119°39'0 0.0
2015-Jun-25 06:33N 39°56' E 119°39'0 0.0
2015-Jun-25 05:33N 39°56' E 119°39'0 0.0
2015-Jun-25 04:33N 39°56' E 119°39'0 0.0
2015-Jun-25 03:33N 39°56' E 119°39'0 0.0
2015-Jun-25 02:33N 39°56' E 119°39'0 0.0
2015-Jun-25 01:33N 39°56' E 119°39'0 0.0
2015-Jun-25 00:33N 39°56' E 119°39'0 0.0
2015-Jun-24 23:33N 39°56' E 119°39'0 0.0
2015-Jun-24 22:33N 39°56' E 119°39'0 0.0
2015-Jun-24 21:33N 39°56' E 119°39'0 0.0
2015-Jun-24 20:33N 39°56' E 119°39'0 0.0
2015-Jun-24 19:21N 39°56' E 119°39'0 0.0
2015-Jun-24 18:33N 39°56' E 119°39'1 1.3
2015-Jun-24 17:34N 39°54' E 119°39'9 9.1
2015-Jun-24 16:34N 39°47' E 119°45'5 4.9
2015-Jun-24 15:32N 39°45' E 119°51'0 0.0
2015-Jun-24 14:32N 39°45' E 119°52'0 0.0
2015-Jun-24 13:32N 39°45' E 119°52'0 0.0
2015-Jun-24 12:20N 39°45' E 119°52'1 1.2
2015-Jun-24 11:33N 39°44' E 119°52'10 9.8
2015-Jun-24 10:33N 39°36' E 119°60'1212.1
2015-Jun-24 09:33N 39°27' E 120°09'1212.4
2015-Jun-24 08:33N 39°17' E 120°19'1212.5
2015-Jun-24 07:33N 39°07' E 120°29'1312.1
2015-Jun-24 06:31N 38°56' E 120°38'4611.5
2015-Jun-24 02:31N 38°24' E 121°20'1112.0
2015-Jun-24 01:33N 38°18' E 121°32'1212.0
2015-Jun-24 00:32N 38°11' E 121°45'1212.1
2015-Jun-23 23:33N 38°05' E 121°58'1211.9
2015-Jun-23 22:34N 37°58' E 122°10'1211.6
2015-Jun-23 21:32N 37°51' E 122°22'1111.0
2015-Jun-23 20:33N 37°45' E 122°34'1110.3
2015-Jun-23 19:30N 37°38' E 122°44'40011.8
2015-Jun-22 09:29N 30°58' E 122°35'1213.1
2015-Jun-22 08:33N 31°01' E 122°21'1313.0
2015-Jun-22 07:33N 31°04' E 122°06'1111.4
2015-Jun-22 06:33N 31°08' E 121°54'1110.9
2015-Jun-22 05:33N 31°16' E 121°45'1111.4
2015-Jun-22 04:33N 31°23' E 121°35'1110.7
2015-Jun-22 03:33N 31°30' E 121°25'10 9.7
2015-Jun-22 02:33N 31°37' E 121°17'0 0.4
2015-Jun-22 01:24N 31°37' E 121°18'0 0.0
2015-Jun-22 00:12N 31°37' E 121°18'0 0.0
2015-Jun-21 23:33N 31°37' E 121°18'0 0.1
2015-Jun-21 22:33N 31°37' E 121°18'0 0.2
2015-Jun-21 21:33N 31°37' E 121°18'0 0.1
2015-Jun-21 20:33N 31°37' E 121°17'0 0.0
2015-Jun-21 19:33N 31°37' E 121°17'0 0.0
2015-Jun-21 18:33N 31°37' E 121°17'0 0.2
2015-Jun-21 17:33N 31°37' E 121°18'0 0.2
2015-Jun-21 16:33N 31°37' E 121°18'0 0.1
2015-Jun-21 15:33N 31°37' E 121°18'0 0.1
2015-Jun-21 14:33N 31°37' E 121°18'0 0.0
2015-Jun-21 13:33N 31°37' E 121°18'0 0.0
2015-Jun-21 12:30N 31°37' E 121°18'0 0.0
2015-Jun-21 11:33N 31°37' E 121°18'0 0.1
2015-Jun-21 10:33N 31°37' E 121°18'0 0.2
2015-Jun-21 09:33N 31°37' E 121°17'0 0.1
2015-Jun-21 08:33N 31°37' E 121°17'0 0.1
2015-Jun-21 07:33N 31°37' E 121°17'0 0.0
2015-Jun-21 06:33N 31°37' E 121°17'0 0.1
2015-Jun-21 05:30N 31°37' E 121°18'0 0.2
2015-Jun-21 04:33N 31°37' E 121°18'0 0.1
2015-Jun-21 03:33N 31°37' E 121°18'0 0.1
2015-Jun-21 02:33N 31°37' E 121°18'0 0.0
2015-Jun-21 01:33N 31°37' E 121°18'0 0.0
2015-Jun-21 00:33N 31°37' E 121°18'0 0.1
2015-Jun-20 23:33N 31°37' E 121°18'0 0.0
2015-Jun-20 22:33N 31°37' E 121°18'0 0.1
2015-Jun-20 21:33N 31°37' E 121°18'0 0.2
2015-Jun-20 20:33N 31°37' E 121°18'0 0.0
2015-Jun-20 19:33N 31°37' E 121°18'0 0.1
2015-Jun-20 18:33N 31°37' E 121°17'  

Dump ship's entire track history